Time;durP1;ratioP1;P1;durP2;ratioP2;P2;SDS_P1;SDS_P2;PMS_P1;PMS_P2;Temp;Humidity;BMP_temperature;BMP_pressure;BME280_temperature;BME280_humidity;BME280_pressure;Samples;Min_cycle;Max_cycle;Signal;HPM_P1;HPM_P2
2022/07/14 00:02:14;;;;;;;18.67;3.70;;;;;;;;;;5067741;28;20038;-66
2022/07/14 00:04:39;;;;;;;19.10;3.37;;;;;;;;;;5075454;28;20037;-66
2022/07/14 00:07:04;;;;;;;20.67;3.47;;;;;;;;;;5064160;28;20022;-66
2022/07/14 00:09:30;;;;;;;18.53;3.40;;;;;;;;;;5061503;28;20031;-66
2022/07/14 00:11:55;;;;;;;20.60;3.60;;;;;;;;;;5061476;28;20035;-66
2022/07/14 00:14:20;;;;;;;19.27;3.50;;;;;;;;;;5065427;28;20028;-66
2022/07/14 00:16:45;;;;;;;19.53;3.20;;;;;;;;;;5060684;28;20020;-66
2022/07/14 00:19:10;;;;;;;24.10;3.77;;;;;;;;;;5062526;28;20021;-66
2022/07/14 00:21:36;;;;;;;23.47;3.80;;;;;;;;;;5075019;28;20153;-66
2022/07/14 00:24:01;;;;;;;20.50;3.83;;;;;;;;;;5076931;28;20012;-66
2022/07/14 00:26:26;;;;;;;20.33;4.03;;;;;;;;;;5081274;28;20028;-66
2022/07/14 00:28:51;;;;;;;22.57;4.10;;;;;;;;;;5075669;28;20388;-66
2022/07/14 00:31:17;;;;;;;22.43;4.30;;;;;;;;;;5080721;28;20032;-66
2022/07/14 00:33:42;;;;;;;21.10;5.23;;;;;;;;;;5087355;28;20016;-66
2022/07/14 00:36:09;;;;;;;21.13;4.30;;;;;;;;;;5087337;28;20028;-66
2022/07/14 00:38:34;;;;;;;29.77;5.00;;;;;;;;;;5087961;28;20150;-66
2022/07/14 00:40:59;;;;;;;21.43;4.60;;;;;;;;;;5090765;28;20110;-67
2022/07/14 00:43:25;;;;;;;23.80;4.53;;;;;;;;;;5081991;28;20036;-66
2022/07/14 00:45:50;;;;;;;21.93;3.83;;;;;;;;;;5085682;28;20025;-67
2022/07/14 00:48:19;;;;;;;24.90;3.80;;;;;;;;;;5083573;28;20028;-66
2022/07/14 00:50:45;;;;;;;20.53;4.07;;;;;;;;;;5091817;28;20032;-66
2022/07/14 00:53:10;;;;;;;24.30;4.00;;;;;;;;;;5087589;28;20038;-66
2022/07/14 00:55:36;;;;;;;23.50;4.37;;;;;;;;;;5088197;28;20016;-66
2022/07/14 00:58:02;;;;;;;20.23;5.43;;;;;;;;;;5082218;28;20428;-66
2022/07/14 01:00:27;;;;;;;19.77;4.50;;;;;;;;;;5085334;28;20048;-66
2022/07/14 01:02:53;;;;;;;25.10;4.83;;;;;;;;;;5087360;28;20965;-67
2022/07/14 01:05:18;;;;;;;31.27;5.40;;;;;;;;;;5086593;28;20422;-67
2022/07/14 01:07:43;;;;;;;20.10;4.50;;;;;;;;;;5087764;28;20527;-66
2022/07/14 01:10:09;;;;;;;29.40;5.80;;;;;;;;;;5089475;28;20031;-66
2022/07/14 01:12:35;;;;;;;24.63;6.07;;;;;;;;;;5089904;28;20024;-66
2022/07/14 01:15:00;;;;;;;23.60;5.67;;;;;;;;;;5079028;28;20074;-66
2022/07/14 01:17:26;;;;;;;22.63;5.57;;;;;;;;;;5087527;28;20133;-66
2022/07/14 01:19:51;;;;;;;19.90;4.90;;;;;;;;;;5085879;28;20027;-67
2022/07/14 01:22:16;;;;;;;16.80;4.97;;;;;;;;;;5077748;28;20015;-66
2022/07/14 01:24:41;;;;;;;25.30;5.27;;;;;;;;;;5086690;28;20031;-67
2022/07/14 01:27:07;;;;;;;21.20;5.30;;;;;;;;;;5082581;28;20050;-66
2022/07/14 01:29:32;;;;;;;28.17;6.50;;;;;;;;;;5078531;28;20391;-66
2022/07/14 01:31:58;;;;;;;33.80;6.40;;;;;;;;;;5084746;28;20043;-66
2022/07/14 01:34:23;;;;;;;27.07;6.93;;;;;;;;;;5083412;28;20089;-66
2022/07/14 01:36:49;;;;;;;25.83;6.27;;;;;;;;;;5090884;28;20023;-66
2022/07/14 01:39:14;;;;;;;18.53;5.47;;;;;;;;;;5086824;28;20016;-67
2022/07/14 01:41:40;;;;;;;17.83;4.33;;;;;;;;;;5081488;28;20046;-67
2022/07/14 01:44:05;;;;;;;15.87;4.30;;;;;;;;;;5089919;28;20064;-66
2022/07/14 01:46:30;;;;;;;15.40;4.47;;;;;;;;;;5079971;28;20039;-67
2022/07/14 01:48:55;;;;;;;24.27;6.23;;;;;;;;;;5086712;28;20024;-66
2022/07/14 01:51:21;;;;;;;17.20;5.03;;;;;;;;;;5083447;28;20031;-67
2022/07/14 01:53:46;;;;;;;23.93;6.10;;;;;;;;;;5084800;28;20110;-66
2022/07/14 01:56:12;;;;;;;17.00;5.00;;;;;;;;;;5088116;28;20380;-66
2022/07/14 01:58:37;;;;;;;21.93;6.13;;;;;;;;;;5082860;28;20016;-66
2022/07/14 02:03:46;;;;;;;28.73;6.47;;;;;;;;;;5087340;28;20031;-67
2022/07/14 02:06:12;;;;;;;27.90;7.43;;;;;;;;;;5084198;28;20487;-66
2022/07/14 02:08:37;;;;;;;24.10;6.33;;;;;;;;;;5081042;28;20031;-66
2022/07/14 02:13:46;;;;;;;22.37;7.40;;;;;;;;;;5083658;28;20019;-67
2022/07/14 02:16:12;;;;;;;24.37;7.87;;;;;;;;;;5081374;28;20012;-66
2022/07/14 02:18:37;;;;;;;25.67;6.33;;;;;;;;;;5086360;28;20028;-67
2022/07/14 02:21:02;;;;;;;25.53;6.73;;;;;;;;;;5085679;28;20016;-66
2022/07/14 02:23:27;;;;;;;26.77;7.73;;;;;;;;;;5079540;28;20036;-66
2022/07/14 02:25:53;;;;;;;26.30;8.00;;;;;;;;;;5085563;28;20031;-66
2022/07/14 02:28:18;;;;;;;29.27;9.30;;;;;;;;;;5083332;28;20788;-67
2022/07/14 02:30:44;;;;;;;22.77;8.07;;;;;;;;;;5082776;28;20400;-66
2022/07/14 02:33:10;;;;;;;24.27;7.83;;;;;;;;;;5087629;28;20070;-66
2022/07/14 02:35:35;;;;;;;27.43;9.40;;;;;;;;;;5085865;28;20028;-66
2022/07/14 02:38:00;;;;;;;24.13;7.90;;;;;;;;;;5087899;28;20024;-66
2022/07/14 02:40:26;;;;;;;28.47;7.93;;;;;;;;;;5083847;28;20023;-66
2022/07/14 02:42:51;;;;;;;32.87;9.57;;;;;;;;;;5084419;28;20027;-66
2022/07/14 02:45:17;;;;;;;28.10;8.50;;;;;;;;;;5080793;28;20028;-67
2022/07/14 02:47:42;;;;;;;27.43;8.30;;;;;;;;;;5080333;28;20019;-67
2022/07/14 02:50:08;;;;;;;35.50;8.47;;;;;;;;;;5079716;28;20035;-67
2022/07/14 02:52:33;;;;;;;23.93;8.77;;;;;;;;;;5087246;28;20025;-66
2022/07/14 02:54:59;;;;;;;24.00;8.10;;;;;;;;;;5080844;28;20066;-66
2022/07/14 02:57:24;;;;;;;28.30;9.73;;;;;;;;;;5089838;28;20028;-67
2022/07/14 02:59:50;;;;;;;24.53;9.27;;;;;;;;;;5080141;28;20016;-66
2022/07/14 03:02:15;;;;;;;28.60;9.83;;;;;;;;;;5081140;28;20016;-66
2022/07/14 03:04:40;;;;;;;32.50;9.97;;;;;;;;;;5090397;28;20023;-67
2022/07/14 03:07:06;;;;;;;33.30;10.77;;;;;;;;;;5089071;28;20016;-67
2022/07/14 03:09:31;;;;;;;27.27;10.60;;;;;;;;;;5079915;28;20028;-67
2022/07/14 03:11:56;;;;;;;25.83;9.70;;;;;;;;;;5088553;28;20024;-67
2022/07/14 03:14:21;;;;;;;30.20;9.13;;;;;;;;;;5082229;28;20157;-66
2022/07/14 03:16:47;;;;;;;27.53;10.20;;;;;;;;;;5082021;28;20586;-66
2022/07/14 03:19:13;;;;;;;31.17;8.57;;;;;;;;;;5081156;28;20103;-66
2022/07/14 03:21:39;;;;;;;26.03;7.90;;;;;;;;;;5087496;28;20566;-66
2022/07/14 03:24:06;;;;;;;20.30;7.77;;;;;;;;;;5082881;28;20205;-66
2022/07/14 03:26:31;;;;;;;19.00;5.87;;;;;;;;;;5081832;28;20012;-66
2022/07/14 03:28:56;;;;;;;24.53;7.00;;;;;;;;;;5086688;28;20376;-66
2022/07/14 03:31:22;;;;;;;22.43;6.63;;;;;;;;;;5083234;28;20400;-67
2022/07/14 03:33:47;;;;;;;24.80;8.93;;;;;;;;;;5084655;28;20099;-66
2022/07/14 03:36:13;;;;;;;24.73;9.37;;;;;;;;;;5089743;28;20612;-68
2022/07/14 03:38:38;;;;;;;29.00;7.97;;;;;;;;;;5078633;28;20430;-67
2022/07/14 03:41:04;;;;;;;23.47;6.87;;;;;;;;;;5085623;28;20016;-66
2022/07/14 03:43:29;;;;;;;18.83;6.67;;;;;;;;;;5082099;28;20388;-66
2022/07/14 03:45:54;;;;;;;20.57;7.13;;;;;;;;;;5080594;28;20492;-67
2022/07/14 03:48:21;;;;;;;30.57;9.17;;;;;;;;;;5079938;28;20024;-66
2022/07/14 03:50:47;;;;;;;29.33;9.63;;;;;;;;;;5083471;28;20081;-67
2022/07/14 03:53:12;;;;;;;26.00;8.30;;;;;;;;;;5088123;28;20031;-67
2022/07/14 03:55:37;;;;;;;26.03;9.40;;;;;;;;;;5085758;28;20025;-67
2022/07/14 03:58:03;;;;;;;27.17;8.77;;;;;;;;;;5086605;28;20026;-67
2022/07/14 04:00:28;;;;;;;22.03;8.70;;;;;;;;;;5079648;28;20013;-67
2022/07/14 04:02:54;;;;;;;29.70;8.77;;;;;;;;;;5082618;28;20468;-67
2022/07/14 04:05:19;;;;;;;22.67;6.77;;;;;;;;;;5091363;28;20442;-66
2022/07/14 04:07:44;;;;;;;12.87;4.13;;;;;;;;;;5089685;28;20063;-67
2022/07/14 04:10:09;;;;;;;17.50;4.90;;;;;;;;;;5086975;28;20131;-66
2022/07/14 04:12:35;;;;;;;15.90;5.57;;;;;;;;;;5087037;28;20111;-66
2022/07/14 04:15:01;;;;;;;13.97;4.90;;;;;;;;;;5088805;28;20059;-67
2022/07/14 04:17:26;;;;;;;17.23;5.00;;;;;;;;;;5081983;28;20024;-67
2022/07/14 04:19:51;;;;;;;16.07;5.63;;;;;;;;;;5081267;28;20499;-67
2022/07/14 04:22:16;;;;;;;13.03;3.80;;;;;;;;;;5083329;28;20512;-67
2022/07/14 04:24:41;;;;;;;23.30;4.97;;;;;;;;;;5087324;28;20022;-67
2022/07/14 04:27:07;;;;;;;19.60;5.10;;;;;;;;;;5087767;28;20028;-67
2022/07/14 04:29:32;;;;;;;16.30;5.27;;;;;;;;;;5088059;28;20386;-67
2022/07/14 04:31:57;;;;;;;16.13;4.50;;;;;;;;;;5084980;28;20032;-67
2022/07/14 04:34:23;;;;;;;26.00;6.57;;;;;;;;;;5079625;28;20086;-67
2022/07/14 04:36:48;;;;;;;15.07;4.67;;;;;;;;;;5089517;28;20036;-67
2022/07/14 04:39:13;;;;;;;12.03;4.60;;;;;;;;;;5076948;28;20024;-67
2022/07/14 04:41:39;;;;;;;20.00;4.47;;;;;;;;;;5089247;28;20028;-67
2022/07/14 04:44:04;;;;;;;20.58;5.05;;;;;;;;;;5087234;28;20028;-67
2022/07/14 04:46:29;;;;;;;13.95;4.43;;;;;;;;;;5085131;28;20467;-67
2022/07/14 04:52:23;;;;;;;15.10;4.20;;;;;;;;;;5085058;28;20047;-67
2022/07/14 04:54:24;;;;;;;14.32;4.07;;;;;;;;;;5077657;28;20044;-67
2022/07/14 04:56:49;;;;;;;19.15;3.75;;;;;;;;;;5088923;28;20376;-67
2022/07/14 04:59:14;;;;;;;15.88;4.32;;;;;;;;;;5084253;28;20052;-67
2022/07/14 05:01:40;;;;;;;13.38;3.95;;;;;;;;;;5080295;28;20430;-67
2022/07/14 05:04:05;;;;;;;14.48;3.90;;;;;;;;;;5074035;28;20020;-67
2022/07/14 05:06:30;;;;;;;16.42;3.90;;;;;;;;;;5078613;28;20548;-67
2022/07/14 05:08:55;;;;;;;15.98;4.68;;;;;;;;;;5079708;28;20031;-67
2022/07/14 05:11:21;;;;;;;16.20;4.60;;;;;;;;;;5076490;28;20025;-67
2022/07/14 05:13:46;;;;;;;15.18;4.38;;;;;;;;;;5074580;28;20032;-67
2022/07/14 05:16:11;;;;;;;17.08;4.45;;;;;;;;;;5076506;28;20020;-67
2022/07/14 05:18:36;;;;;;;15.38;3.92;;;;;;;;;;5073284;28;20442;-67
2022/07/14 05:21:01;;;;;;;13.13;3.92;;;;;;;;;;5081306;28;20063;-67
2022/07/14 05:23:27;;;;;;;14.05;3.90;;;;;;;;;;5087218;28;20027;-67
2022/07/14 05:25:53;;;;;;;16.52;3.88;;;;;;;;;;5087433;28;20054;-67
2022/07/14 05:28:18;;;;;;;12.80;3.40;;;;;;;;;;5086625;28;20028;-67
2022/07/14 05:30:43;;;;;;;13.25;3.92;;;;;;;;;;5080151;28;20391;-67
2022/07/14 05:33:08;;;;;;;14.60;3.22;;;;;;;;;;5087695;28;20614;-67
2022/07/14 05:35:34;;;;;;;12.38;3.03;;;;;;;;;;5082537;28;20028;-67
2022/07/14 05:37:59;;;;;;;9.85;2.67;;;;;;;;;;5086015;28;20100;-67
2022/07/14 05:40:24;;;;;;;10.05;2.53;;;;;;;;;;5080459;28;20032;-67
2022/07/14 05:42:49;;;;;;;12.25;2.80;;;;;;;;;;5083327;28;20370;-67
2022/07/14 05:45:15;;;;;;;10.35;2.72;;;;;;;;;;5076842;28;20021;-67
2022/07/14 05:47:45;;;;;;;11.32;2.90;;;;;;;;;;5076862;28;20028;-67
2022/07/14 05:50:10;;;;;;;14.50;3.03;;;;;;;;;;5092643;28;20024;-67
2022/07/14 05:52:35;;;;;;;12.32;3.25;;;;;;;;;;5092564;28;20082;-67
2022/07/14 05:55:01;;;;;;;12.70;2.75;;;;;;;;;;5090757;28;20028;-67
2022/07/14 05:57:26;;;;;;;11.05;2.80;;;;;;;;;;5092629;28;20024;-67
2022/07/14 05:59:52;;;;;;;10.73;2.70;;;;;;;;;;5081758;28;20020;-67
2022/07/14 06:02:17;;;;;;;9.50;2.22;;;;;;;;;;5073524;28;20457;-67
2022/07/14 06:04:42;;;;;;;14.32;2.92;;;;;;;;;;5092960;28;20024;-67
2022/07/14 06:07:08;;;;;;;7.55;2.40;;;;;;;;;;5090430;28;20020;-67
2022/07/14 06:09:37;;;;;;;14.88;2.88;;;;;;;;;;5092339;28;20077;-67
2022/07/14 06:12:05;;;;;;;9.43;2.28;;;;;;;;;;5076165;28;20016;-67
2022/07/14 06:14:30;;;;;;;7.63;2.30;;;;;;;;;;5089724;28;20050;-67
2022/07/14 06:16:56;;;;;;;8.80;2.60;;;;;;;;;;5091362;28;20020;-67
2022/07/14 06:19:21;;;;;;;9.23;2.22;;;;;;;;;;5092069;28;20020;-67
2022/07/14 06:21:46;;;;;;;11.82;2.47;;;;;;;;;;5089030;28;20400;-67
2022/07/14 06:24:12;;;;;;;7.88;2.13;;;;;;;;;;5088291;28;20019;-67
2022/07/14 06:26:37;;;;;;;7.47;2.22;;;;;;;;;;5071811;28;20020;-67
2022/07/14 06:29:03;;;;;;;8.98;2.10;;;;;;;;;;5086054;28;20085;-67
2022/07/14 06:31:29;;;;;;;6.93;1.70;;;;;;;;;;5072107;28;20078;-68
2022/07/14 06:33:54;;;;;;;9.20;2.03;;;;;;;;;;5082705;28;20028;-67
2022/07/14 06:36:20;;;;;;;9.75;1.80;;;;;;;;;;5074296;28;20024;-67
2022/07/14 06:38:45;;;;;;;8.65;1.73;;;;;;;;;;5084538;28;20038;-68
2022/07/14 06:41:10;;;;;;;13.05;2.17;;;;;;;;;;5091967;28;20019;-68
2022/07/14 06:43:35;;;;;;;11.07;2.03;;;;;;;;;;5089871;28;20012;-68
2022/07/14 06:46:01;;;;;;;7.72;1.70;;;;;;;;;;5087963;28;20028;-68
2022/07/14 06:48:27;;;;;;;8.43;1.58;;;;;;;;;;5088793;28;20024;-68
2022/07/14 06:50:52;;;;;;;6.95;1.55;;;;;;;;;;5081006;28;20055;-68
2022/07/14 06:53:17;;;;;;;8.68;1.20;;;;;;;;;;5091625;28;20036;-68
2022/07/14 06:55:42;;;;;;;5.65;1.20;;;;;;;;;;5091933;28;20016;-68
2022/07/14 06:58:07;;;;;;;7.10;1.30;;;;;;;;;;5091419;28;20467;-68
2022/07/14 07:00:33;;;;;;;4.72;1.00;;;;;;;;;;5089927;28;20392;-67
2022/07/14 07:02:58;;;;;;;9.13;1.40;;;;;;;;;;5091322;28;20491;-67
2022/07/14 07:08:07;;;;;;;7.13;1.20;;;;;;;;;;5090250;28;20032;-68
2022/07/14 07:10:32;;;;;;;7.65;1.10;;;;;;;;;;5091170;28;20036;-68
2022/07/14 07:12:59;;;;;;;11.35;2.45;;;;;;;;;;5091502;28;20107;-68
2022/07/14 07:15:24;;;;;;;8.43;1.60;;;;;;;;;;5089435;28;20026;-68
2022/07/14 07:17:49;;;;;;;6.45;1.30;;;;;;;;;;5091231;28;20464;-67
2022/07/14 07:20:15;;;;;;;4.88;1.10;;;;;;;;;;5073220;28;20028;-68
2022/07/14 07:22:40;;;;;;;6.82;1.10;;;;;;;;;;5080991;28;20032;-68
2022/07/14 07:25:06;;;;;;;6.53;1.15;;;;;;;;;;5088895;28;20640;-67
2022/07/14 07:27:32;;;;;;;4.90;1.23;;;;;;;;;;5087702;28;20448;-68
2022/07/14 07:30:01;;;;;;;6.18;1.17;;;;;;;;;;5084198;28;20392;-68
2022/07/14 07:32:26;;;;;;;7.03;1.50;;;;;;;;;;5089623;28;20024;-68
2022/07/14 07:34:52;;;;;;;6.80;1.25;;;;;;;;;;5087527;28;20659;-67
2022/07/14 07:37:17;;;;;;;6.97;1.30;;;;;;;;;;5088616;28;20024;-67
2022/07/14 07:39:42;;;;;;;5.78;1.40;;;;;;;;;;5094505;28;20077;-68
2022/07/14 07:42:07;;;;;;;6.40;1.30;;;;;;;;;;5083534;28;20020;-67
2022/07/14 07:44:33;;;;;;;8.20;1.50;;;;;;;;;;5092097;28;20098;-67
2022/07/14 07:46:58;;;;;;;5.95;1.42;;;;;;;;;;5095011;28;20035;-68
2022/07/14 07:49:32;;;;;;;6.53;1.17;;;;;;;;;;5079396;28;20028;-67
2022/07/14 07:51:59;;;;;;;5.40;1.27;;;;;;;;;;5074835;28;20079;-68
2022/07/14 07:54:25;;;;;;;9.23;1.40;;;;;;;;;;5091186;28;20024;-67
2022/07/14 07:56:50;;;;;;;8.18;1.25;;;;;;;;;;5095137;28;20073;-67
2022/07/14 07:59:15;;;;;;;6.07;1.20;;;;;;;;;;5091735;28;20430;-68
2022/07/14 08:01:40;;;;;;;6.78;1.10;;;;;;;;;;5094877;28;20043;-67
2022/07/14 08:04:06;;;;;;;8.18;1.08;;;;;;;;;;5081457;28;20052;-67
2022/07/14 08:06:31;;;;;;;5.50;1.20;;;;;;;;;;5074896;28;20020;-68
2022/07/14 08:08:56;;;;;;;5.55;1.20;;;;;;;;;;5078369;28;20047;-68
2022/07/14 08:11:21;;;;;;;4.85;1.20;;;;;;;;;;5086128;28;20432;-68
2022/07/14 08:13:46;;;;;;;5.68;1.30;;;;;;;;;;5085877;28;20600;-68
2022/07/14 08:16:12;;;;;;;6.95;1.25;;;;;;;;;;5093598;28;20525;-68
2022/07/14 08:18:38;;;;;;;5.78;1.10;;;;;;;;;;5094576;28;20425;-67
2022/07/14 08:21:03;;;;;;;7.72;1.20;;;;;;;;;;5092782;28;20099;-67
2022/07/14 08:23:28;;;;;;;5.97;1.10;;;;;;;;;;5088321;28;20214;-68
2022/07/14 08:25:54;;;;;;;7.32;1.10;;;;;;;;;;5074129;28;20262;-69
2022/07/14 08:28:19;;;;;;;7.75;1.38;;;;;;;;;;5083900;28;20040;-68
2022/07/14 08:30:44;;;;;;;7.25;1.33;;;;;;;;;;5093643;28;20058;-69
2022/07/14 08:33:09;;;;;;;5.80;1.20;;;;;;;;;;5088705;28;20442;-68
2022/07/14 08:35:35;;;;;;;6.43;1.35;;;;;;;;;;5073906;28;20048;-68
2022/07/14 08:38:00;;;;;;;7.55;1.30;;;;;;;;;;5080924;28;20040;-68
2022/07/14 08:40:26;;;;;;;6.45;1.33;;;;;;;;;;5094527;28;20047;-67
2022/07/14 08:42:53;;;;;;;6.88;1.70;;;;;;;;;;5094442;28;20024;-67
2022/07/14 08:45:20;;;;;;;6.07;1.23;;;;;;;;;;5075341;28;20032;-67
2022/07/14 08:47:46;;;;;;;7.97;1.27;;;;;;;;;;5078299;28;20038;-67
2022/07/14 08:50:14;;;;;;;7.07;1.40;;;;;;;;;;5081440;28;20497;-67
2022/07/14 08:52:40;;;;;;;5.22;1.02;;;;;;;;;;5077869;28;20233;-68
2022/07/14 08:55:07;;;;;;;5.70;1.00;;;;;;;;;;5089801;28;20031;-67
2022/07/14 08:57:33;;;;;;;5.55;1.00;;;;;;;;;;5076689;28;20107;-66
2022/07/14 08:59:58;;;;;;;7.95;1.27;;;;;;;;;;5092471;28;20117;-67
2022/07/14 09:02:23;;;;;;;5.30;1.00;;;;;;;;;;5093876;28;20050;-66
2022/07/14 09:04:49;;;;;;;5.88;1.00;;;;;;;;;;5093388;28;20073;-67
2022/07/14 09:07:29;;;;;;;8.07;1.27;;;;;;;;;;5081082;28;20051;-67
2022/07/14 09:10:01;;;;;;;7.43;1.23;;;;;;;;;;5093692;28;20028;-66
2022/07/14 09:12:27;;;;;;;6.18;1.40;;;;;;;;;;5093385;28;20032;-67
2022/07/14 09:17:48;;;;;;;6.78;1.20;;;;;;;;;;5076777;28;20027;-67
2022/07/14 09:20:13;;;;;;;6.40;1.23;;;;;;;;;;5093893;28;20558;-67
2022/07/14 09:22:39;;;;;;;6.60;1.30;;;;;;;;;;5092909;28;20103;-67
2022/07/14 09:25:07;;;;;;;6.20;1.30;;;;;;;;;;5074013;28;20027;-66
2022/07/14 09:27:33;;;;;;;7.78;1.30;;;;;;;;;;5075716;28;20046;-67
2022/07/14 09:29:58;;;;;;;9.25;1.40;;;;;;;;;;5076064;28;20024;-67
2022/07/14 09:32:42;;;;;;;8.75;1.25;;;;;;;;;;5075503;28;20029;-67
2022/07/14 09:35:07;;;;;;;7.18;1.10;;;;;;;;;;5078419;28;20032;-67
2022/07/14 09:37:32;;;;;;;6.07;1.13;;;;;;;;;;5075824;28;20046;-67
2022/07/14 09:39:58;;;;;;;10.00;1.60;;;;;;;;;;5090559;28;20081;-68
2022/07/14 09:42:42;;;;;;;6.63;1.20;;;;;;;;;;5074475;28;20070;-67
2022/07/14 09:45:09;;;;;;;6.80;1.15;;;;;;;;;;5079856;28;20017;-68
2022/07/14 09:47:50;;;;;;;6.15;1.10;;;;;;;;;;5076066;28;20020;-67
2022/07/14 09:50:30;;;;;;;7.63;1.77;;;;;;;;;;5088672;28;20051;-66
2022/07/14 09:52:55;;;;;;;5.32;1.20;;;;;;;;;;5080734;28;20099;-66
2022/07/14 09:55:22;;;;;;;6.30;1.02;;;;;;;;;;5092898;28;20115;-67
2022/07/14 09:57:47;;;;;;;4.45;0.90;;;;;;;;;;5088270;28;20024;-67
2022/07/14 10:00:16;;;;;;;5.38;1.30;;;;;;;;;;5076790;28;20024;-67
2022/07/14 10:02:41;;;;;;;8.00;1.20;;;;;;;;;;5075918;28;20137;-67
2022/07/14 10:05:08;;;;;;;11.00;1.27;;;;;;;;;;5092931;28;20042;-67
2022/07/14 10:07:38;;;;;;;7.13;1.33;;;;;;;;;;5092475;28;20036;-67
2022/07/14 10:10:07;;;;;;;4.13;1.10;;;;;;;;;;5078341;28;20082;-68
2022/07/14 10:12:34;;;;;;;4.70;0.90;;;;;;;;;;5075186;28;20078;-68
2022/07/14 10:15:02;;;;;;;8.45;1.25;;;;;;;;;;5089035;28;20103;-67
2022/07/14 10:17:28;;;;;;;5.88;1.52;;;;;;;;;;5092573;28;20027;-66
2022/07/14 10:19:54;;;;;;;5.93;1.10;;;;;;;;;;5090604;28;20012;-67
2022/07/14 10:22:20;;;;;;;6.78;1.20;;;;;;;;;;5084373;28;20426;-66
2022/07/14 10:24:46;;;;;;;5.15;1.10;;;;;;;;;;5092461;28;20024;-68
2022/07/14 10:27:12;;;;;;;5.43;1.10;;;;;;;;;;5092166;28;20020;-67
2022/07/14 10:29:38;;;;;;;5.22;1.17;;;;;;;;;;5085300;28;20031;-67
2022/07/14 10:32:03;;;;;;;5.85;1.10;;;;;;;;;;5083201;28;20032;-68
2022/07/14 10:34:28;;;;;;;6.18;1.58;;;;;;;;;;5091942;28;20038;-67
2022/07/14 10:36:58;;;;;;;6.15;1.13;;;;;;;;;;5092288;28;20012;-68
2022/07/14 10:39:42;;;;;;;8.85;1.30;;;;;;;;;;5086147;28;20017;-67
2022/07/14 10:42:14;;;;;;;5.03;1.15;;;;;;;;;;5071458;28;20029;-66
2022/07/14 10:44:43;;;;;;;6.18;1.10;;;;;;;;;;5076598;28;20045;-67
2022/07/14 10:47:10;;;;;;;5.25;0.90;;;;;;;;;;5092254;28;20044;-67
2022/07/14 10:49:54;;;;;;;6.45;1.10;;;;;;;;;;5075465;28;20024;-66
2022/07/14 10:52:26;;;;;;;6.25;0.95;;;;;;;;;;5085933;28;20511;-67
2022/07/14 10:55:10;;;;;;;6.25;0.85;;;;;;;;;;5091657;28;20046;-67
2022/07/14 10:57:36;;;;;;;5.45;1.15;;;;;;;;;;5091720;28;20053;-67
2022/07/14 11:00:01;;;;;;;7.45;1.30;;;;;;;;;;5087611;28;20062;-67
2022/07/14 11:02:27;;;;;;;4.60;0.95;;;;;;;;;;5090353;28;20024;-69
2022/07/14 11:04:58;;;;;;;7.95;1.30;;;;;;;;;;5081373;28;20023;-67
2022/07/14 11:07:43;;;;;;;6.00;1.05;;;;;;;;;;5091775;28;20056;-67
2022/07/14 11:10:14;;;;;;;3.60;0.80;;;;;;;;;;5079387;28;20081;-68
2022/07/14 11:12:58;;;;;;;7.55;1.27;;;;;;;;;;5074735;28;20428;-67
2022/07/14 11:15:53;;;;;;;3.53;0.80;;;;;;;;;;5089852;28;20440;-67
2022/07/14 11:18:18;;;;;;;3.80;1.10;;;;;;;;;;5081889;28;20028;-68
2022/07/14 11:21:07;;;;;;;6.82;1.10;;;;;;;;;;5074679;28;20108;-68
2022/07/14 11:23:57;;;;;;;6.50;1.02;;;;;;;;;;5085967;28;20052;-67
2022/07/14 11:26:32;;;;;;;5.13;0.88;;;;;;;;;;5091727;28;20023;-67
2022/07/14 11:28:57;;;;;;;4.65;1.02;;;;;;;;;;5089366;28;20122;-67
2022/07/14 11:31:22;;;;;;;4.15;0.95;;;;;;;;;;5077661;28;20044;-67
2022/07/14 11:36:34;;;;;;;8.18;1.15;;;;;;;;;;5074648;28;20032;-67
2022/07/14 11:39:18;;;;;;;5.20;1.10;;;;;;;;;;5083622;28;20488;-67
2022/07/14 11:41:43;;;;;;;4.53;1.02;;;;;;;;;;5071092;28;20024;-67
2022/07/14 11:44:47;;;;;;;5.75;1.10;;;;;;;;;;5083198;28;20025;-67
2022/07/14 11:47:31;;;;;;;7.00;1.10;;;;;;;;;;5028441;28;20017;-67
2022/07/14 11:49:58;;;;;;;4.18;0.80;;;;;;;;;;5048393;28;20398;-67
2022/07/14 11:52:37;;;;;;;2.65;0.63;;;;;;;;;;5048090;28;20040;-68
2022/07/14 11:55:03;;;;;;;6.22;0.80;;;;;;;;;;5048020;28;20064;-68
2022/07/14 11:57:29;;;;;;;4.85;0.70;;;;;;;;;;5047881;28;20029;-68
2022/07/14 12:00:00;;;;;;;4.25;0.85;;;;;;;;;;5047002;28;20477;-68
2022/07/14 12:02:25;;;;;;;;;;;;;;;;;;5035249;28;20400;-68
2022/07/14 12:04:52;;;;;;;6.32;0.90;;;;;;;;;;5048582;28;20343;-68
2022/07/14 12:07:17;;;;;;;3.63;0.80;;;;;;;;;;5048164;28;20033;-68
2022/07/14 12:09:43;;;;;;;5.47;0.80;;;;;;;;;;5048123;28;20542;-68
2022/07/14 12:12:08;;;;;;;2.33;0.63;;;;;;;;;;5048583;28;20378;-68
2022/07/14 12:14:42;;;;;;;4.82;0.75;;;;;;;;;;5047759;28;20040;-68
2022/07/14 12:17:07;;;;;;;2.22;0.60;;;;;;;;;;5054369;28;20028;-68
2022/07/14 12:19:33;;;;;;;6.80;1.02;;;;;;;;;;5091033;28;20024;-68
2022/07/14 12:21:59;;;;;;;3.88;0.90;;;;;;;;;;5090904;28;20027;-68
2022/07/14 12:24:25;;;;;;;4.47;0.90;;;;;;;;;;5090795;28;20012;-68
2022/07/14 12:26:50;;;;;;;4.55;0.57;;;;;;;;;;5095012;28;20490;-68
2022/07/14 12:29:15;;;;;;;3.35;0.68;;;;;;;;;;5092609;28;20509;-67
2022/07/14 12:31:41;;;;;;;4.45;0.60;;;;;;;;;;5093789;28;20464;-68
2022/07/14 12:34:06;;;;;;;4.45;0.70;;;;;;;;;;5081695;28;20049;-68
2022/07/14 12:36:32;;;;;;;3.30;0.80;;;;;;;;;;5074550;28;20032;-67
2022/07/14 12:38:58;;;;;;;2.75;0.68;;;;;;;;;;5084963;28;20027;-68
2022/07/14 12:41:25;;;;;;;5.25;0.77;;;;;;;;;;5077765;28;20027;-68
2022/07/14 12:43:51;;;;;;;3.20;0.60;;;;;;;;;;5086788;28;20373;-68
2022/07/14 12:46:18;;;;;;;5.45;0.73;;;;;;;;;;5074268;28;20036;-68
2022/07/14 12:48:49;;;;;;;3.25;0.60;;;;;;;;;;5088114;28;20051;-68
2022/07/14 12:51:17;;;;;;;4.75;0.85;;;;;;;;;;5094301;28;20028;-68
2022/07/14 12:53:59;;;;;;;4.22;0.60;;;;;;;;;;5094144;28;20480;-68
2022/07/14 12:56:24;;;;;;;4.15;1.00;;;;;;;;;;5086875;28;20038;-68
2022/07/14 12:58:50;;;;;;;2.28;0.60;;;;;;;;;;5084976;28;20142;-68
2022/07/14 13:01:15;;;;;;;3.97;0.60;;;;;;;;;;5079459;28;20475;-68
2022/07/14 13:03:40;;;;;;;5.43;0.70;;;;;;;;;;5093248;28;20054;-68
2022/07/14 13:06:06;;;;;;;1.67;0.50;;;;;;;;;;5074163;28;20407;-68
2022/07/14 13:08:38;;;;;;;7.07;0.80;;;;;;;;;;5079234;28;20032;-68
2022/07/14 13:11:12;;;;;;;3.22;0.60;;;;;;;;;;5093864;28;20024;-68
2022/07/14 13:13:42;;;;;;;3.88;0.60;;;;;;;;;;5092634;28;20428;-68
2022/07/14 13:16:28;;;;;;;3.65;0.60;;;;;;;;;;5090521;28;20028;-67
2022/07/14 13:19:23;;;;;;;6.60;0.70;;;;;;;;;;5089894;28;20028;-67
2022/07/14 13:21:57;;;;;;;3.17;0.70;;;;;;;;;;5074900;28;20033;-67
2022/07/14 13:24:27;;;;;;;4.60;0.80;;;;;;;;;;5081270;28;20330;-67
2022/07/14 13:27:06;;;;;;;2.58;0.50;;;;;;;;;;5073404;28;20019;-67
2022/07/14 13:29:32;;;;;;;2.58;0.50;;;;;;;;;;5088411;28;20024;-68
2022/07/14 13:31:57;;;;;;;3.33;0.70;;;;;;;;;;5088287;28;20099;-68
2022/07/14 13:34:23;;;;;;;4.13;0.70;;;;;;;;;;5093254;28;20099;-68
2022/07/14 13:36:48;;;;;;;3.50;0.70;;;;;;;;;;5092527;28;20023;-68
2022/07/14 13:39:13;;;;;;;3.08;0.80;;;;;;;;;;5079809;28;20024;-68
2022/07/14 13:41:39;;;;;;;3.50;0.80;;;;;;;;;;5089369;28;20024;-67
2022/07/14 13:44:05;;;;;;;1.75;0.60;;;;;;;;;;5081552;28;20423;-67
2022/07/14 13:46:30;;;;;;;3.53;0.50;;;;;;;;;;5073277;28;20426;-68
2022/07/14 13:48:56;;;;;;;4.95;0.68;;;;;;;;;;5085645;28;20064;-68
2022/07/14 13:54:05;;;;;;;3.60;0.70;;;;;;;;;;5088281;28;20116;-67
2022/07/14 13:56:30;;;;;;;6.75;0.82;;;;;;;;;;5077643;28;20032;-68
2022/07/14 13:58:56;;;;;;;5.35;0.85;;;;;;;;;;5078932;28;20008;-67
2022/07/14 14:01:21;;;;;;;2.85;0.60;;;;;;;;;;5072694;28;20048;-67
2022/07/14 14:03:47;;;;;;;6.55;0.85;;;;;;;;;;5085349;28;20651;-67
2022/07/14 14:06:14;;;;;;;4.82;0.60;;;;;;;;;;5093118;28;20476;-67
2022/07/14 14:08:40;;;;;;;10.35;1.10;;;;;;;;;;5082470;28;20142;-69
2022/07/14 14:11:06;;;;;;;5.70;0.80;;;;;;;;;;5072194;28;20020;-67
2022/07/14 14:13:35;;;;;;;5.82;0.80;;;;;;;;;;5085079;28;20023;-68
2022/07/14 14:16:01;;;;;;;3.75;0.70;;;;;;;;;;5092728;28;20020;-68
2022/07/14 14:18:27;;;;;;;4.75;0.90;;;;;;;;;;5092307;28;20514;-68
2022/07/14 14:20:53;;;;;;;4.00;0.70;;;;;;;;;;5092536;28;20020;-68
2022/07/14 14:23:18;;;;;;;2.97;0.70;;;;;;;;;;5091463;28;20016;-67
2022/07/14 14:25:44;;;;;;;4.40;1.27;;;;;;;;;;5092270;28;20027;-67
2022/07/14 14:28:11;;;;;;;9.13;1.00;;;;;;;;;;5092053;28;20123;-67
2022/07/14 14:30:37;;;;;;;3.38;0.80;;;;;;;;;;5089433;28;20016;-67
2022/07/14 14:33:03;;;;;;;4.55;1.10;;;;;;;;;;5092152;28;20694;-68
2022/07/14 14:35:28;;;;;;;7.43;0.95;;;;;;;;;;5091050;28;20065;-67
2022/07/14 14:37:53;;;;;;;4.07;0.68;;;;;;;;;;5077365;28;20044;-68
2022/07/14 14:40:19;;;;;;;3.08;0.68;;;;;;;;;;5092149;28;20532;-68
2022/07/14 14:42:44;;;;;;;4.28;1.00;;;;;;;;;;5091744;28;20088;-68
2022/07/14 14:45:11;;;;;;;3.45;0.70;;;;;;;;;;5079637;28;20483;-68
2022/07/14 14:47:37;;;;;;;2.83;0.70;;;;;;;;;;5087372;28;20032;-68
2022/07/14 14:50:02;;;;;;;3.35;0.90;;;;;;;;;;5092099;28;20023;-68
2022/07/14 14:52:28;;;;;;;2.20;0.80;;;;;;;;;;5091702;28;20624;-68
2022/07/14 14:54:53;;;;;;;3.53;0.88;;;;;;;;;;5080704;28;20028;-68
2022/07/14 14:57:19;;;;;;;4.03;0.93;;;;;;;;;;5072557;28;20017;-68